createdAt,value
2022-11-29T00:01:55.695Z,100797.44
2022-11-29T00:04:23.838Z,100793.84
2022-11-29T00:06:51.794Z,100794.44
2022-11-29T00:09:19.905Z,100783.56
2022-11-29T00:12:05.359Z,100788.53
2022-11-29T00:14:33.571Z,100783.38
2022-11-29T00:17:04.357Z,100782.31
2022-11-29T00:19:33.506Z,100798.53
2022-11-29T00:22:02.649Z,100790.88
2022-11-29T00:24:32.597Z,100793.69
2022-11-29T00:27:04.067Z,100796.56
2022-11-29T00:29:33.833Z,100801.56
2022-11-29T00:32:03.588Z,100798.53
2022-11-29T00:34:31.555Z,100788.75
2022-11-29T00:36:59.618Z,100799.06
2022-11-29T00:39:27.574Z,100798.41
2022-11-29T00:41:56.856Z,100798.00
2022-11-29T00:44:25.133Z,100794.81
2022-11-29T00:46:53.820Z,100797.63
2022-11-29T00:49:23.345Z,100794.97
2022-11-29T00:51:51.686Z,100792.84
2022-11-29T00:54:20.237Z,100794.63
2022-11-29T00:56:48.093Z,100795.19
2022-11-29T00:59:18.637Z,100795.34
2022-11-29T01:01:46.740Z,100787.84
2022-11-29T01:04:17.019Z,100789.44
2022-11-29T01:06:52.674Z,100786.63
2022-11-29T01:09:21.061Z,100806.56
2022-11-29T01:11:50.661Z,100803.91
2022-11-29T01:14:18.610Z,100785.59
2022-11-29T01:16:50.819Z,100805.69
2022-11-29T01:19:18.677Z,100806.41
2022-11-29T01:21:47.904Z,100797.69
2022-11-29T01:24:15.788Z,100802.66
2022-11-29T01:26:43.644Z,100808.19
2022-11-29T01:29:13.925Z,100809.81
2022-11-29T01:31:41.765Z,100806.41
2022-11-29T01:34:10.539Z,100808.00
2022-11-29T01:36:38.511Z,100806.25
2022-11-29T01:39:11.749Z,100794.84
2022-11-29T01:41:39.774Z,100812.50
2022-11-29T01:44:24.953Z,100818.94
2022-11-29T01:46:57.141Z,100818.03
2022-11-29T01:49:31.375Z,100816.97
2022-11-29T01:52:00.442Z,100825.91
2022-11-29T01:54:35.871Z,100809.16
2022-11-29T01:57:08.264Z,100800.63
2022-11-29T01:59:45.076Z,100809.50
2022-11-29T02:02:16.851Z,100807.56
2022-11-29T02:04:47.923Z,100813.13
2022-11-29T02:07:19.676Z,100815.97
2022-11-29T02:09:55.379Z,100818.13
2022-11-29T02:12:30.993Z,100809.38
2022-11-29T02:15:10.926Z,100814.75
2022-11-29T02:17:52.237Z,100819.38
2022-11-29T02:20:57.147Z,100815.28
2022-11-29T02:23:48.385Z,100817.94
2022-11-29T02:26:42.050Z,100812.81
2022-11-29T02:29:39.847Z,100821.53
2022-11-29T02:32:58.491Z,100826.88
2022-11-29T02:35:43.303Z,100823.84
2022-11-29T02:38:44.472Z,100824.53
2022-11-29T02:41:29.908Z,100827.94
2022-11-29T02:44:25.890Z,100825.59
2022-11-29T02:47:08.885Z,100827.25
2022-11-29T02:50:02.171Z,100821.72
2022-11-29T02:52:47.869Z,100825.47
2022-11-29T02:55:26.033Z,100786.81
2022-11-29T02:58:01.148Z,100836.72
2022-11-29T03:00:36.843Z,100843.16
2022-11-29T03:03:13.610Z,100838.84
2022-11-29T03:05:47.174Z,100837.94
2022-11-29T03:08:23.350Z,100845.66
2022-11-29T03:11:01.371Z,100851.50
2022-11-29T03:13:43.002Z,100847.41
2022-11-29T03:16:23.246Z,100848.66
2022-11-29T03:19:05.340Z,100852.06
2022-11-29T03:21:54.180Z,100850.28
2022-11-29T03:24:31.601Z,100843.66
2022-11-29T03:27:05.890Z,100851.31
2022-11-29T03:29:38.984Z,100847.41
2022-11-29T03:32:13.542Z,100854.72
2022-11-29T03:34:57.611Z,100856.31
2022-11-29T03:37:36.337Z,100867.00
2022-11-29T03:40:11.896Z,100863.44
2022-11-29T03:42:46.162Z,100846.00
2022-11-29T03:45:23.882Z,100865.78
2022-11-29T03:48:00.715Z,100859.53
2022-11-29T03:50:35.747Z,100854.00
2022-11-29T03:53:14.034Z,100871.69
2022-11-29T03:55:54.893Z,100864.88
2022-11-29T03:58:59.072Z,100880.94
2022-11-29T04:01:50.779Z,100877.00
2022-11-29T04:04:52.473Z,100856.50
2022-11-29T04:07:42.705Z,100886.31
2022-11-29T04:10:47.659Z,100876.31
2022-11-29T04:13:47.670Z,100879.50
2022-11-29T04:16:59.434Z,100888.06
2022-11-29T04:20:01.257Z,100880.75
2022-11-29T04:22:53.879Z,100887.38
2022-11-29T04:25:59.138Z,100887.56
2022-11-29T04:31:48.188Z,100890.63
2022-11-29T04:34:54.556Z,100900.44
2022-11-29T04:37:52.876Z,100910.41
2022-11-29T04:40:41.730Z,100902.38
2022-11-29T04:43:40.741Z,100902.75
2022-11-29T04:46:38.021Z,100907.38
2022-11-29T04:49:24.198Z,100916.81
2022-11-29T04:52:26.977Z,100909.31
2022-11-29T04:55:02.227Z,100916.31
2022-11-29T04:57:46.679Z,100920.75
2022-11-29T05:00:17.570Z,100907.00
2022-11-29T05:02:56.147Z,100921.66
2022-11-29T05:05:58.460Z,100927.00
2022-11-29T05:08:38.554Z,100932.16
2022-11-29T05:11:20.815Z,100931.31
2022-11-29T05:14:13.907Z,100915.41
2022-11-29T05:16:48.732Z,100929.16
2022-11-29T05:19:44.652Z,100949.66
2022-11-29T05:22:26.531Z,100945.38
2022-11-29T05:25:06.919Z,100942.16
2022-11-29T05:27:48.417Z,100951.44
2022-11-29T05:30:19.878Z,100957.34
2022-11-29T05:32:58.854Z,100958.94
2022-11-29T05:35:48.837Z,100958.38
2022-11-29T05:38:32.922Z,100955.19
2022-11-29T05:41:13.407Z,100968.03
2022-11-29T05:43:56.902Z,100968.75
2022-11-29T05:46:32.337Z,100974.09
2022-11-29T05:49:11.807Z,100976.44
2022-11-29T05:51:45.967Z,100983.75
2022-11-29T05:54:25.430Z,100989.81
2022-11-29T05:57:05.964Z,100992.66
2022-11-29T05:59:52.337Z,100982.50
2022-11-29T06:02:43.944Z,100996.56
2022-11-29T06:05:29.863Z,100999.28
2022-11-29T06:08:07.177Z,100978.94
2022-11-29T06:10:40.814Z,100982.84
2022-11-29T06:13:23.055Z,100984.44
2022-11-29T06:16:32.484Z,100995.50
2022-11-29T06:19:37.469Z,100997.31
2022-11-29T06:22:26.164Z,101000.16
2022-11-29T06:25:18.135Z,101000.50
2022-11-29T06:28:16.645Z,101015.13
2022-11-29T06:30:56.677Z,101008.38
2022-11-29T06:33:28.510Z,101018.38
2022-11-29T06:36:20.981Z,101016.56
2022-11-29T06:38:58.665Z,101018.38
2022-11-29T06:41:28.441Z,101006.75
2022-11-29T06:44:12.024Z,101020.13
2022-11-29T06:46:46.906Z,101019.59
2022-11-29T06:49:23.959Z,101009.41
2022-11-29T06:52:04.441Z,101011.56
2022-11-29T06:54:51.803Z,101025.84
2022-11-29T06:57:26.284Z,101028.19
2022-11-29T07:00:10.941Z,101030.28
2022-11-29T07:02:49.060Z,101038.69
2022-11-29T07:05:24.734Z,101041.75
2022-11-29T07:07:55.211Z,101035.16
2022-11-29T07:10:25.321Z,101039.78
2022-11-29T07:12:53.894Z,101041.03
2022-11-29T07:15:24.810Z,101050.13
2022-11-29T07:18:18.741Z,101039.59
2022-11-29T07:20:58.209Z,101050.84
2022-11-29T07:23:34.384Z,101051.91
2022-11-29T07:26:15.017Z,101063.16
2022-11-29T07:28:57.665Z,101065.66
2022-11-29T07:31:39.409Z,101067.81
2022-11-29T07:34:19.729Z,101062.63
2022-11-29T07:37:00.822Z,101061.91
2022-11-29T07:39:42.940Z,101072.09
2022-11-29T07:42:20.190Z,101075.13
2022-11-29T07:44:59.547Z,101068.31
2022-11-29T07:47:34.067Z,101073.69
2022-11-29T07:50:03.709Z,101075.13
2022-11-29T07:52:35.412Z,101073.31
2022-11-29T07:55:03.668Z,101082.97
2022-11-29T07:57:32.135Z,101086.19
2022-11-29T08:00:07.794Z,101071.91
2022-11-29T08:02:41.197Z,101087.25
2022-11-29T08:05:10.029Z,101090.13
2022-11-29T08:07:39.517Z,101091.56
2022-11-29T08:10:19.363Z,101099.56
2022-11-29T08:12:50.241Z,101104.06
2022-11-29T08:15:18.754Z,101101.00
2022-11-29T08:17:48.217Z,101104.94
2022-11-29T08:20:17.798Z,101109.75
2022-11-29T08:22:55.383Z,101105.50
2022-11-29T08:25:24.075Z,101087.78
2022-11-29T08:27:52.791Z,101112.94
2022-11-29T08:30:22.290Z,101103.69
2022-11-29T08:32:52.663Z,101112.81
2022-11-29T08:35:22.304Z,101112.63
2022-11-29T08:37:50.952Z,101108.34
2022-11-29T08:40:19.454Z,101106.72
2022-11-29T08:42:47.535Z,101112.47
2022-11-29T08:45:16.422Z,101100.13
2022-11-29T08:47:44.373Z,101115.69
2022-11-29T08:50:17.880Z,101113.69
2022-11-29T08:53:05.704Z,101120.16
2022-11-29T08:55:36.080Z,101124.59
2022-11-29T08:58:08.022Z,101129.59
2022-11-29T09:00:41.088Z,101130.66
2022-11-29T09:03:26.904Z,101129.41
2022-11-29T09:05:57.560Z,101136.22
2022-11-29T09:08:29.015Z,101130.31
2022-11-29T09:11:10.991Z,101121.56
2022-11-29T09:13:40.766Z,101128.34
2022-11-29T09:16:11.260Z,101139.59
2022-11-29T09:18:40.593Z,101146.94
2022-11-29T09:21:12.418Z,101122.47
2022-11-29T09:23:42.223Z,101148.72
2022-11-29T09:26:11.772Z,101149.41
2022-11-29T09:28:42.537Z,101147.81
2022-11-29T09:31:12.951Z,101154.44
2022-11-29T09:33:41.394Z,101149.44
2022-11-29T09:36:12.066Z,101148.72
2022-11-29T09:38:40.794Z,101148.34
2022-11-29T09:41:25.111Z,101134.03
2022-11-29T09:44:06.621Z,101157.28
2022-11-29T09:46:45.119Z,101157.84
2022-11-29T09:49:55.387Z,101162.09
2022-11-29T09:52:53.577Z,101169.25
2022-11-29T09:55:38.466Z,101168.38
2022-11-29T09:58:10.695Z,101173.72
2022-11-29T10:00:47.242Z,101170.88
2022-11-29T10:03:23.235Z,101175.69
2022-11-29T10:05:57.430Z,101171.94
2022-11-29T10:08:33.127Z,101176.59
2022-11-29T10:11:16.968Z,101174.78
2022-11-29T10:13:48.960Z,101171.06
2022-11-29T10:16:24.588Z,101167.66
2022-11-29T10:19:01.059Z,101166.94
2022-11-29T10:21:35.213Z,101170.00
2022-11-29T10:24:10.814Z,101175.88
2022-11-29T10:26:38.993Z,101173.75
2022-11-29T10:29:06.821Z,101162.13
2022-11-29T10:31:40.106Z,101175.53
2022-11-29T10:34:14.460Z,101175.53
2022-11-29T10:36:43.873Z,101176.41
2022-11-29T10:39:17.247Z,101172.31
2022-11-29T10:41:45.176Z,101174.09
2022-11-29T10:44:15.556Z,101179.44
2022-11-29T10:46:43.447Z,101182.47
2022-11-29T10:49:16.305Z,101184.44
2022-11-29T10:51:44.272Z,101177.81
2022-11-29T10:54:28.516Z,101176.91
2022-11-29T10:56:58.358Z,101173.50
2022-11-29T10:59:28.282Z,101165.44
2022-11-29T11:01:57.039Z,101174.56
2022-11-29T11:04:30.464Z,101173.28
2022-11-29T11:07:01.361Z,101169.66
2022-11-29T11:09:37.118Z,101168.34
2022-11-29T11:12:08.489Z,101167.50
2022-11-29T11:14:38.647Z,101123.56
2022-11-29T11:17:21.696Z,101166.81
2022-11-29T11:19:57.702Z,101175.59
2022-11-29T11:22:27.116Z,101165.94
2022-11-29T11:25:02.137Z,101176.50
2022-11-29T11:27:32.217Z,101169.34
2022-11-29T11:30:01.149Z,101168.66
2022-11-29T11:32:29.456Z,101170.63
2022-11-29T11:34:59.009Z,101170.28
2022-11-29T11:37:28.630Z,101169.75
2022-11-29T11:39:59.784Z,101173.13
2022-11-29T11:42:39.709Z,101177.97
2022-11-29T11:45:38.795Z,101190.16
2022-11-29T11:48:14.447Z,101187.28
2022-11-29T11:50:45.437Z,101187.13
2022-11-29T11:53:22.260Z,101187.44
2022-11-29T11:56:00.016Z,101185.16
2022-11-29T11:58:30.884Z,101189.41
2022-11-29T12:01:04.825Z,101187.47
2022-11-29T12:03:46.615Z,101183.69
2022-11-29T12:06:32.940Z,101199.78
2022-11-29T12:09:06.155Z,101187.81
2022-11-29T12:11:43.664Z,101197.31
2022-11-29T12:14:21.389Z,101207.13
2022-11-29T12:16:51.367Z,101203.03
2022-11-29T12:19:24.104Z,101201.25
2022-11-29T12:21:57.428Z,101204.28
2022-11-29T12:24:30.126Z,101209.44
2022-11-29T12:27:04.125Z,101216.81
2022-11-29T12:29:34.799Z,101209.09
2022-11-29T12:32:15.656Z,101214.47
2022-11-29T12:35:00.302Z,101218.25
2022-11-29T12:37:32.434Z,101220.19
2022-11-29T12:40:07.605Z,101225.19
2022-11-29T12:42:52.935Z,101219.09
2022-11-29T12:45:34.329Z,101222.69
2022-11-29T12:48:10.658Z,101223.41
2022-11-29T12:50:46.592Z,101225.22
2022-11-29T12:53:28.206Z,101224.31
2022-11-29T12:56:07.145Z,101220.38
2022-11-29T12:58:50.408Z,101229.13
2022-11-29T13:01:26.919Z,101226.25
2022-11-29T13:04:01.362Z,101233.59
2022-11-29T13:06:38.179Z,101224.84
2022-11-29T13:09:28.161Z,101227.16
2022-11-29T13:11:59.705Z,101231.81
2022-11-29T13:14:44.060Z,101227.53
2022-11-29T13:17:18.200Z,101235.22
2022-11-29T13:19:50.644Z,101226.28
2022-11-29T13:22:27.003Z,101231.09
2022-11-29T13:24:58.817Z,101240.03
2022-11-29T13:27:31.112Z,101232.34
2022-11-29T13:30:02.010Z,101240.94
2022-11-29T13:32:35.150Z,101241.84
2022-11-29T13:35:09.090Z,101241.28
2022-11-29T13:37:49.377Z,101240.41
2022-11-29T13:40:30.967Z,101248.81
2022-11-29T13:43:04.989Z,101252.00
2022-11-29T13:45:41.516Z,101254.34
2022-11-29T13:48:31.230Z,101259.88
2022-11-29T13:50:59.507Z,101248.81
2022-11-29T13:53:47.040Z,101262.00
2022-11-29T13:56:29.583Z,101257.00
2022-11-29T13:58:58.955Z,101260.25
2022-11-29T14:01:29.481Z,101268.09
2022-11-29T14:04:15.720Z,101268.09
2022-11-29T14:06:43.612Z,101272.41
2022-11-29T14:09:24.721Z,101269.72
2022-11-29T14:12:01.156Z,101272.41
2022-11-29T14:14:33.072Z,101274.72
2022-11-29T14:17:03.820Z,101276.13
2022-11-29T14:19:34.187Z,101273.63
2022-11-29T14:22:22.764Z,101275.22
2022-11-29T14:25:43.237Z,101277.38
2022-11-29T14:28:29.597Z,101275.97
2022-11-29T14:30:58.436Z,101278.47
2022-11-29T14:33:53.045Z,101283.47
2022-11-29T14:36:33.212Z,101278.63
2022-11-29T14:39:14.910Z,101288.28
2022-11-29T14:41:56.232Z,101287.56
2022-11-29T14:44:28.399Z,101282.56
2022-11-29T14:47:02.645Z,101280.59
2022-11-29T14:49:32.856Z,101284.88
2022-11-29T14:52:10.319Z,101285.41
2022-11-29T14:54:55.196Z,101291.66
2022-11-29T14:57:52.801Z,101290.94
2022-11-29T15:00:22.278Z,101288.09
2022-11-29T15:02:53.399Z,101284.50
2022-11-29T15:05:25.596Z,101283.94
2022-11-29T15:08:04.740Z,101285.56
2022-11-29T15:10:38.159Z,101290.94
2022-11-29T15:13:07.428Z,101299.16
2022-11-29T15:15:45.563Z,101298.59
2022-11-29T15:18:29.740Z,101295.22
2022-11-29T15:21:10.375Z,101298.44
2022-11-29T15:23:42.651Z,101292.34
2022-11-29T15:26:18.825Z,101297.72
2022-11-29T15:28:46.781Z,101307.72
2022-11-29T15:31:19.070Z,101301.47
2022-11-29T15:33:49.595Z,101307.38
2022-11-29T15:36:21.316Z,101313.78
2022-11-29T15:38:50.640Z,101310.38
2022-11-29T15:41:27.141Z,101309.69
2022-11-29T15:43:57.346Z,101316.69
2022-11-29T15:46:26.893Z,101315.38
2022-11-29T15:48:55.013Z,101320.38
2022-11-29T15:51:30.325Z,101313.09
2022-11-29T15:54:12.231Z,101314.69
2022-11-29T15:56:46.282Z,101311.66
2022-11-29T15:59:20.162Z,101315.59
2022-11-29T16:01:52.400Z,101311.28
2022-11-29T16:04:22.559Z,101306.63
2022-11-29T16:06:52.781Z,101317.72
2022-11-29T16:09:24.053Z,101317.00
2022-11-29T16:11:52.098Z,101309.84
2022-11-29T16:14:24.600Z,101318.06
2022-11-29T16:16:55.200Z,101319.47
2022-11-29T16:19:27.489Z,101333.06
2022-11-29T16:22:09.941Z,101324.31
2022-11-29T16:24:38.802Z,101332.03
2022-11-29T16:27:08.364Z,101333.63
2022-11-29T16:29:38.644Z,101334.13
2022-11-29T16:32:15.805Z,101340.03
2022-11-29T16:34:45.025Z,101340.94
2022-11-29T16:37:19.535Z,101343.97
2022-11-29T16:39:49.145Z,101348.59
2022-11-29T16:42:24.935Z,101355.91
2022-11-29T16:45:03.030Z,101349.63
2022-11-29T16:47:33.144Z,101354.09
2022-11-29T16:50:24.983Z,101354.28
2022-11-29T16:52:56.769Z,101354.09
2022-11-29T16:55:25.415Z,101353.38
2022-11-29T16:57:53.380Z,101361.06
2022-11-29T17:00:30.792Z,101350.69
2022-11-29T17:02:58.694Z,101359.63
2022-11-29T17:05:26.728Z,101347.97
2022-11-29T17:07:56.250Z,101368.72
2022-11-29T17:10:25.959Z,101364.13
2022-11-29T17:12:53.697Z,101371.06
2022-11-29T17:15:21.546Z,101364.28
2022-11-29T17:17:50.018Z,101370.88
2022-11-29T17:20:18.140Z,101372.13
2022-11-29T17:22:45.953Z,101383.38
2022-11-29T17:25:15.081Z,101385.53
2022-11-29T17:27:42.901Z,101376.19
2022-11-29T17:30:12.287Z,101384.63
2022-11-29T17:32:40.135Z,101386.03
2022-11-29T17:35:08.404Z,101389.06
2022-11-29T17:37:36.332Z,101401.19
2022-11-29T17:40:04.532Z,101398.69
2022-11-29T17:42:33.640Z,101399.22
2022-11-29T17:45:01.513Z,101394.03
2022-11-29T17:47:29.400Z,101400.84
2022-11-29T17:49:58.080Z,101397.44
2022-11-29T17:52:26.080Z,101402.03
2022-11-29T17:54:54.032Z,101403.13
2022-11-29T17:57:21.896Z,101397.59
2022-11-29T17:59:51.134Z,101410.78
2022-11-29T18:02:18.988Z,101404.91
2022-11-29T18:04:46.912Z,101414.50
2022-11-29T18:07:17.029Z,101410.00
2022-11-29T18:09:46.450Z,101413.94
2022-11-29T18:12:14.509Z,101405.75
2022-11-29T18:14:42.420Z,101412.34
2022-11-29T18:17:11.650Z,101418.56
2022-11-29T18:19:39.558Z,101426.06
2022-11-29T18:22:07.436Z,101417.47
2022-11-29T18:24:35.294Z,101419.78
2022-11-29T18:27:03.103Z,101418.56
2022-11-29T18:29:46.266Z,101414.47
2022-11-29T18:32:16.004Z,101415.72
2022-11-29T18:34:44.085Z,101413.91
2022-11-29T18:37:17.943Z,101411.72
2022-11-29T18:39:52.670Z,101415.31
2022-11-29T18:42:20.513Z,101418.91
2022-11-29T18:44:48.500Z,101421.38
2022-11-29T18:47:17.814Z,101423.53
2022-11-29T18:49:45.748Z,101395.56
2022-11-29T18:52:13.560Z,101419.69
2022-11-29T18:54:41.343Z,101418.22
2022-11-29T18:57:09.261Z,101418.75
2022-11-29T18:59:37.199Z,101416.25
2022-11-29T19:02:04.963Z,101428.59
2022-11-29T19:04:34.142Z,101428.81
2022-11-29T19:07:02.026Z,101435.59
2022-11-29T19:09:29.939Z,101429.13
2022-11-29T19:11:57.959Z,101431.63
2022-11-29T19:14:26.021Z,101423.72
2022-11-29T19:16:54.290Z,101440.22
2022-11-29T19:19:22.321Z,101432.00
2022-11-29T19:21:51.497Z,101430.22
2022-11-29T19:24:20.011Z,101439.16
2022-11-29T19:26:49.686Z,101423.03
2022-11-29T19:29:18.412Z,101432.19
2022-11-29T19:31:46.225Z,101432.00
2022-11-29T19:34:14.703Z,101433.41
2022-11-29T19:36:44.402Z,101422.66
2022-11-29T19:39:15.113Z,101431.63
2022-11-29T19:41:44.866Z,101434.50
2022-11-29T19:44:13.151Z,101430.59
2022-11-29T19:46:43.319Z,101421.78
2022-11-29T19:49:11.741Z,101405.63
2022-11-29T19:51:40.261Z,101431.44
2022-11-29T19:54:10.579Z,101436.63
2022-11-29T19:56:40.890Z,101436.44
2022-11-29T19:59:09.743Z,101441.81
2022-11-29T20:01:42.742Z,101444.13
2022-11-29T20:04:12.627Z,101448.03
2022-11-29T20:06:41.163Z,101441.75
2022-11-29T20:09:09.167Z,101448.53
2022-11-29T20:11:37.489Z,101446.22
2022-11-29T20:14:08.280Z,101449.44
2022-11-29T20:16:37.868Z,101444.25
2022-11-29T20:19:10.061Z,101456.44
2022-11-29T20:21:42.170Z,101451.63
2022-11-29T20:24:10.293Z,101451.63
2022-11-29T20:26:39.800Z,101448.72
2022-11-29T20:29:10.287Z,101459.66
2022-11-29T20:31:43.062Z,101454.13
2022-11-29T20:34:15.055Z,101454.47
2022-11-29T20:36:58.133Z,101459.13
2022-11-29T20:39:37.287Z,101463.03
2022-11-29T20:42:39.185Z,101463.03
2022-11-29T20:45:10.652Z,101458.03
2022-11-29T20:47:46.454Z,101457.63
2022-11-29T20:50:17.609Z,101464.44
2022-11-29T20:52:52.994Z,101463.03
2022-11-29T20:55:21.202Z,101466.59
2022-11-29T20:57:49.822Z,101470.88
2022-11-29T21:00:19.618Z,101472.88
2022-11-29T21:02:47.374Z,101466.59
2022-11-29T21:05:16.568Z,101465.50
2022-11-29T21:07:45.722Z,101460.53
2022-11-29T21:10:14.742Z,101468.00
2022-11-29T21:12:43.213Z,101455.84
2022-11-29T21:15:13.127Z,101465.13
2022-11-29T21:17:44.135Z,101451.47
2022-11-29T21:20:18.804Z,101446.88
2022-11-29T21:22:54.471Z,101462.56
2022-11-29T21:25:31.076Z,101452.72
2022-11-29T21:28:01.430Z,101461.09
2022-11-29T21:30:29.580Z,101458.00
2022-11-29T21:32:59.812Z,101467.59
2022-11-29T21:35:27.593Z,101467.06
2022-11-29T21:37:59.614Z,101465.47
2022-11-29T21:40:27.592Z,101472.06
2022-11-29T21:42:55.412Z,101464.97
2022-11-29T21:45:23.274Z,101463.16
2022-11-29T21:47:51.064Z,101466.56
2022-11-29T21:50:20.406Z,101467.69
2022-11-29T21:52:48.218Z,101471.56
2022-11-29T21:55:16.167Z,101477.88
2022-11-29T21:57:44.320Z,101475.66
2022-11-29T22:00:13.202Z,101475.66
2022-11-29T22:02:42.129Z,101478.88
2022-11-29T22:05:10.676Z,101480.66
2022-11-29T22:07:39.849Z,101480.66
2022-11-29T22:10:13.254Z,101478.16
2022-11-29T22:12:51.339Z,101481.69
2022-11-29T22:15:24.426Z,101481.31
2022-11-29T22:17:54.149Z,101492.03
2022-11-29T22:20:23.542Z,101491.66
2022-11-29T22:22:57.166Z,101490.91
2022-11-29T22:25:26.642Z,101488.47
2022-11-29T22:27:54.459Z,101493.56
2022-11-29T22:30:22.622Z,101490.22
2022-11-29T22:32:50.409Z,101490.72
2022-11-29T22:35:18.315Z,101495.88
2022-11-29T22:37:46.160Z,101496.59
2022-11-29T22:40:15.761Z,101500.88
2022-11-29T22:42:43.765Z,101498.19
2022-11-29T22:45:12.370Z,101494.13
2022-11-29T22:47:40.457Z,101494.47
2022-11-29T22:50:09.279Z,101495.19
2022-11-29T22:52:37.295Z,101494.78
2022-11-29T22:55:05.583Z,101499.00
2022-11-29T22:57:34.773Z,101489.88
2022-11-29T23:00:02.701Z,101501.31
2022-11-29T23:02:30.886Z,101502.53
2022-11-29T23:04:58.747Z,101500.03
2022-11-29T23:07:26.606Z,101502.41
2022-11-29T23:09:55.957Z,101501.38
2022-11-29T23:12:23.847Z,101504.59
2022-11-29T23:14:56.626Z,101509.28
2022-11-29T23:17:24.980Z,101509.09
2022-11-29T23:19:53.120Z,101505.88
2022-11-29T23:22:20.963Z,101510.50
2022-11-29T23:24:48.881Z,101513.19
2022-11-29T23:27:16.859Z,101514.09
2022-11-29T23:29:44.686Z,101513.38
2022-11-29T23:32:13.916Z,101512.69
2022-11-29T23:34:42.289Z,101506.28
2022-11-29T23:37:10.395Z,101508.38
2022-11-29T23:39:38.233Z,101509.84
2022-11-29T23:42:06.630Z,101503.78
2022-11-29T23:44:34.579Z,101463.22
2022-11-29T23:47:02.558Z,101502.75
2022-11-29T23:49:31.957Z,101502.34
2022-11-29T23:52:00.068Z,101503.56
2022-11-29T23:54:27.969Z,101487.31
2022-11-29T23:56:55.874Z,101491.53
2022-11-29T23:59:23.657Z,101497.03
